Time;durP1;ratioP1;P1;durP2;ratioP2;P2;SDS_P1;SDS_P2;PMS_P1;PMS_P2;Temp;Humidity;BMP_temperature;BMP_pressure;BME280_temperature;BME280_humidity;BME280_pressure;Samples;Min_cycle;Max_cycle;Signal;HPM_P1;HPM_P2
2023/09/04 00:02:01;;;;;;;1.23;1.00;;;;;;;17.01;88.25;102157.69;4961813;28;20027;-63
2023/09/04 00:04:27;;;;;;;1.60;0.98;;;;;;;17.00;89.23;102147.16;4988951;28;20044;-63
2023/09/04 00:06:52;;;;;;;1.80;1.13;;;;;;;17.07;88.43;102148.06;5048729;28;20028;-63
2023/09/04 00:09:18;;;;;;;1.13;0.73;;;;;;;17.07;88.72;102148.06;5042706;28;20097;-63
2023/09/04 00:11:43;;;;;;;1.98;1.10;;;;;;;17.07;88.28;102150.78;5047908;28;20608;-63
2023/09/04 00:14:09;;;;;;;2.08;0.90;;;;;;;17.06;88.32;102153.88;5048456;28;20056;-63
2023/09/04 00:16:34;;;;;;;1.15;0.85;;;;;;;16.97;88.22;102156.06;5048489;28;20048;-63
2023/09/04 00:19:00;;;;;;;1.67;0.90;;;;;;;16.90;88.57;102153.19;5045420;28;20013;-63
2023/09/04 00:21:25;;;;;;;0.88;0.82;;;;;;;16.91;89.36;102150.13;5047869;28;20529;-63
2023/09/04 00:23:51;;;;;;;1.42;0.85;;;;;;;16.96;88.77;102149.81;5047777;28;20025;-64
2023/09/04 00:26:16;;;;;;;1.65;0.77;;;;;;;16.88;89.29;102150.81;5042896;28;20479;-63
2023/09/04 00:28:44;;;;;;;1.23;0.95;;;;;;;16.89;89.09;102141.53;5045708;28;20033;-63
2023/09/04 00:31:10;;;;;;;2.47;1.05;;;;;;;16.86;89.51;102149.63;5027218;28;20032;-63
2023/09/04 00:33:35;;;;;;;2.38;1.08;;;;;;;16.91;89.28;102152.06;5047466;28;20111;-63
2023/09/04 00:36:02;;;;;;;1.52;0.80;;;;;;;16.88;89.65;102155.47;5042196;28;20116;-64
2023/09/04 00:38:28;;;;;;;1.85;1.23;;;;;;;16.79;90.70;102160.38;5030001;28;20092;-63
2023/09/04 00:40:53;;;;;;;1.40;1.08;;;;;;;16.74;90.78;102158.72;5029387;28;20025;-64
2023/09/04 00:43:19;;;;;;;2.25;1.40;;;;;;;16.80;90.71;102159.22;5023140;28;20069;-63
2023/09/04 00:45:46;;;;;;;1.38;1.15;;;;;;;16.81;90.93;102158.88;5046733;28;20086;-64
2023/09/04 00:48:12;;;;;;;1.42;0.95;;;;;;;16.87;90.90;102153.91;5028443;28;20027;-63
2023/09/04 00:50:40;;;;;;;2.17;1.02;;;;;;;16.89;90.20;102157.06;5029922;28;20479;-63
2023/09/04 00:53:07;;;;;;;2.55;1.25;;;;;;;16.88;90.05;102152.75;5046036;28;20043;-63
2023/09/04 00:55:33;;;;;;;2.65;1.23;;;;;;;16.85;89.43;102154.28;5040043;28;20132;-64
2023/09/04 00:57:59;;;;;;;2.25;1.17;;;;;;;16.86;89.72;102153.13;5045326;28;20043;-64
2023/09/04 01:00:27;;;;;;;1.60;1.08;;;;;;;16.87;89.27;102156.63;5027646;28;20033;-64
2023/09/04 01:03:13;;;;;;;1.98;1.20;;;;;;;16.83;89.55;102159.28;5026470;28;20033;-64
2023/09/04 01:05:38;;;;;;;1.80;1.33;;;;;;;16.84;89.58;102146.47;4968099;28;20057;-63
2023/09/04 01:08:04;;;;;;;1.17;1.08;;;;;;;16.85;88.92;102153.50;4951343;28;20425;-64
2023/09/04 01:10:42;;;;;;;1.48;1.20;;;;;;;16.79;89.45;102163.09;4948547;28;20054;-63
2023/09/04 01:13:15;;;;;;;1.13;1.02;;;;;;;16.77;89.72;102157.22;4961016;28;20138;-64
2023/09/04 01:15:41;;;;;;;1.67;1.05;;;;;;;16.74;90.22;102156.00;4936945;28;20405;-63
2023/09/04 01:18:08;;;;;;;5.00;1.38;;;;;;;16.66;90.78;102162.47;4967058;28;20035;-64
2023/09/04 01:20:33;;;;;;;1.85;1.00;;;;;;;16.64;91.32;102163.97;4971832;28;20050;-64
2023/09/04 01:23:02;;;;;;;1.33;0.90;;;;;;;16.52;91.64;102161.38;4969241;28;20088;-64
2023/09/04 01:25:54;;;;;;;1.77;1.30;;;;;;;16.45;92.36;102155.78;4957693;28;20034;-63
2023/09/04 01:28:40;;;;;;;2.15;1.05;;;;;;;16.51;92.18;102155.13;4949585;28;20027;-63
2023/09/04 01:31:53;;;;;;;1.58;1.10;;;;;;;16.43;91.85;102156.13;4970340;28;20038;-63
2023/09/04 01:34:24;;;;;;;1.48;1.10;;;;;;;16.36;92.44;102158.69;4963819;28;20125;-64
2023/09/04 01:36:52;;;;;;;2.40;1.23;;;;;;;16.36;92.30;102152.44;4971512;28;20059;-64
2023/09/04 01:39:20;;;;;;;1.20;0.80;;;;;;;16.43;92.22;102150.69;4972608;28;20038;-64
2023/09/04 01:41:45;;;;;;;1.55;1.30;;;;;;;16.44;91.79;102146.00;4979486;28;20248;-63
2023/09/04 01:44:11;;;;;;;1.75;1.13;;;;;;;16.47;91.02;102153.47;5048519;28;20040;-63
2023/09/04 01:46:37;;;;;;;1.05;0.90;;;;;;;16.41;91.30;102154.91;5053381;28;20057;-63
2023/09/04 01:49:02;;;;;;;1.23;1.08;;;;;;;16.45;91.31;102159.28;5031191;28;20108;-64
2023/09/04 01:51:28;;;;;;;1.25;1.02;;;;;;;16.42;90.37;102157.25;5049346;28;20033;-64
2023/09/04 01:53:53;;;;;;;1.73;1.60;;;;;;;16.39;90.47;102152.53;5031374;28;20033;-64
2023/09/04 01:56:19;;;;;;;13.70;1.98;;;;;;;16.37;90.91;102160.28;5039546;28;20446;-64
2023/09/04 01:58:45;;;;;;;1.08;0.70;;;;;;;16.37;90.59;102145.88;5032137;28;20036;-63
2023/09/04 02:01:10;;;;;;;0.73;0.65;;;;;;;16.37;90.91;102143.97;5015654;28;20377;-64
2023/09/04 02:03:36;;;;;;;1.02;0.90;;;;;;;16.35;90.49;102140.81;5030582;28;20033;-64
2023/09/04 02:06:01;;;;;;;1.60;1.10;;;;;;;16.34;90.76;102143.88;5051553;28;20765;-63
2023/09/04 02:08:27;;;;;;;1.77;0.82;;;;;;;16.32;91.00;102138.03;5044570;28;20017;-63
2023/09/04 02:10:55;;;;;;;4.15;1.05;;;;;;;16.28;90.56;102136.00;5050446;28;20539;-63
2023/09/04 02:13:20;;;;;;;2.03;0.90;;;;;;;16.22;90.81;102140.13;5047932;28;20057;-63
2023/09/04 02:15:45;;;;;;;5.13;1.23;;;;;;;16.15;90.97;102141.91;5029694;28;20033;-63
2023/09/04 02:18:11;;;;;;;1.48;0.90;;;;;;;16.18;91.03;102136.56;5033475;28;20032;-64
2023/09/04 02:20:37;;;;;;;2.17;1.30;;;;;;;16.16;90.91;102140.78;5050437;28;20407;-63
2023/09/04 02:23:02;;;;;;;1.10;0.90;;;;;;;16.11;91.02;102133.69;5041847;28;20032;-63
2023/09/04 02:25:28;;;;;;;2.28;0.90;;;;;;;16.13;91.14;102136.03;5031193;28;20593;-63
2023/09/04 02:27:54;;;;;;;1.33;1.15;;;;;;;16.16;91.12;102130.69;5028599;28;22034;-63
2023/09/04 02:30:19;;;;;;;1.25;0.88;;;;;;;16.10;91.42;102129.38;5048869;28;20041;-64
2023/09/04 02:32:45;;;;;;;2.47;1.50;;;;;;;16.09;91.50;102133.25;5047821;28;20047;-63
2023/09/04 02:35:11;;;;;;;1.35;0.88;;;;;;;16.15;91.33;102120.16;5030828;28;20032;-63
2023/09/04 02:37:36;;;;;;;3.80;1.13;;;;;;;16.14;90.94;102129.47;5041619;28;20025;-63
2023/09/04 02:40:05;;;;;;;1.50;1.23;;;;;;;16.10;91.02;102125.91;5045312;28;20037;-63
2023/09/04 02:42:31;;;;;;;1.50;1.17;;;;;;;16.11;91.30;102130.97;5041940;28;20471;-63
2023/09/04 02:44:57;;;;;;;4.55;1.38;;;;;;;16.09;91.43;102127.03;5027132;28;20111;-63
2023/09/04 02:47:23;;;;;;;1.48;1.13;;;;;;;16.12;90.83;102129.81;5022293;28;20116;-63
2023/09/04 02:49:48;;;;;;;1.10;1.00;;;;;;;16.10;90.96;102128.63;5028453;28;20570;-63
2023/09/04 02:52:14;;;;;;;1.67;1.00;;;;;;;16.08;90.71;102130.91;5041592;28;20017;-63
2023/09/04 02:54:40;;;;;;;2.05;1.58;;;;;;;16.05;90.85;102123.44;5027118;28;20127;-63
2023/09/04 02:57:06;;;;;;;1.52;1.27;;;;;;;16.12;90.83;102129.81;5030698;28;20503;-63
2023/09/04 02:59:34;;;;;;;2.00;1.00;;;;;;;16.03;90.51;102128.44;5048130;28;20028;-63
2023/09/04 03:01:59;;;;;;;1.75;1.27;;;;;;;16.01;91.12;102120.66;5040767;28;20060;-63
2023/09/04 03:04:25;;;;;;;2.75;1.48;;;;;;;16.02;91.21;102124.97;5044654;28;20065;-63
2023/09/04 03:06:50;;;;;;;2.65;1.35;;;;;;;15.97;91.19;102121.72;5037159;28;20051;-63
2023/09/04 03:09:15;;;;;;;2.33;1.17;;;;;;;16.01;91.72;102114.41;5014886;28;20107;-63
2023/09/04 03:11:41;;;;;;;4.25;1.08;;;;;;;15.94;91.50;102119.72;5043764;28;20096;-63
2023/09/04 03:14:06;;;;;;;1.38;1.15;;;;;;;15.94;91.15;102117.78;5032813;28;20032;-63
2023/09/04 03:16:33;;;;;;;1.58;1.25;;;;;;;15.84;91.74;102118.34;5049937;28;20104;-63
2023/09/04 03:18:58;;;;;;;2.08;1.40;;;;;;;15.91;92.12;102115.75;5028430;28;20128;-63
2023/09/04 03:21:24;;;;;;;2.10;1.20;;;;;;;15.92;91.67;102109.19;5049726;28;20028;-63
2023/09/04 03:23:51;;;;;;;2.58;1.60;;;;;;;15.92;91.90;102114.63;5029597;28;20518;-63
2023/09/04 03:26:17;;;;;;;2.20;1.27;;;;;;;15.97;91.11;102114.34;5026499;28;20477;-63
2023/09/04 03:28:43;;;;;;;1.50;1.25;;;;;;;15.93;91.13;102110.00;5020491;28;20025;-63
2023/09/04 03:31:15;;;;;;;2.60;1.38;;;;;;;15.92;91.70;102108.41;5026598;28;20028;-63
2023/09/04 03:33:41;;;;;;;1.73;1.05;;;;;;;15.90;91.16;102103.34;5030660;28;20033;-63
2023/09/04 03:36:12;;;;;;;2.33;1.33;;;;;;;15.89;91.47;102106.41;5032166;28;20052;-63
2023/09/04 03:38:39;;;;;;;2.30;1.40;;;;;;;15.89;91.08;102103.69;5043366;28;20116;-63
2023/09/04 03:41:04;;;;;;;3.72;1.73;;;;;;;15.85;91.28;102109.03;5049573;28;20036;-63
2023/09/04 03:43:30;;;;;;;2.10;1.40;;;;;;;15.86;91.70;102116.06;5047480;28;20029;-63
2023/09/04 03:45:55;;;;;;;1.45;1.15;;;;;;;15.87;91.25;102116.84;5040273;28;20115;-63
2023/09/04 03:48:21;;;;;;;3.08;1.52;;;;;;;15.85;90.98;102122.59;5016587;28;20065;-64
2023/09/04 03:50:47;;;;;;;2.22;1.60;;;;;;;15.81;90.96;102124.50;5007321;28;20104;-63
2023/09/04 03:53:13;;;;;;;2.47;1.65;;;;;;;15.81;91.44;102124.50;5040924;28;20462;-63
2023/09/04 03:55:39;;;;;;;2.00;1.55;;;;;;;15.82;91.65;102128.75;5023118;28;20644;-63
2023/09/04 03:58:04;;;;;;;2.65;1.48;;;;;;;15.81;91.10;102129.13;5018447;28;20035;-63
2023/09/04 04:00:30;;;;;;;3.42;1.52;;;;;;;15.74;91.60;102132.47;5033451;28;20040;-63
2023/09/04 04:02:57;;;;;;;2.00;1.30;;;;;;;15.76;91.52;102132.88;5007921;28;20390;-63
2023/09/04 04:05:23;;;;;;;3.13;1.58;;;;;;;15.71;91.46;102130.47;5047215;28;20463;-63
2023/09/04 04:07:49;;;;;;;3.33;1.65;;;;;;;15.63;91.72;102142.28;5031278;28;20524;-63
2023/09/04 04:10:15;;;;;;;1.55;1.05;;;;;;;15.63;91.79;102125.19;5022377;28;20048;-63
2023/09/04 04:12:40;;;;;;;2.28;1.63;;;;;;;15.66;91.66;102122.56;5033954;28;20063;-62
2023/09/04 04:15:07;;;;;;;3.83;1.20;;;;;;;15.62;92.31;102124.41;5035046;28;20045;-63
2023/09/04 04:17:34;;;;;;;2.67;1.90;;;;;;;15.62;92.42;102126.34;5040181;28;20037;-63
2023/09/04 04:20:00;;;;;;;1.45;1.35;;;;;;;15.62;92.05;102124.41;5039055;28;20030;-63
2023/09/04 04:22:25;;;;;;;1.85;1.42;;;;;;;15.63;92.53;102136.84;5029662;28;20044;-63
2023/09/04 04:24:51;;;;;;;2.22;1.40;;;;;;;15.63;92.03;102130.63;5039040;28;20045;-63
2023/09/04 04:27:17;;;;;;;1.42;1.17;;;;;;;15.65;91.96;102131.88;5016806;28;20029;-61
2023/09/04 04:29:43;;;;;;;1.73;1.63;;;;;;;15.61;91.88;102125.56;5015063;28;20033;-61
2023/09/04 04:32:09;;;;;;;2.97;1.85;;;;;;;15.64;91.24;102127.56;5009755;28;20027;-61
2023/09/04 04:34:35;;;;;;;3.58;1.58;;;;;;;15.64;91.44;102127.56;5028596;28;20021;-61
2023/09/04 04:37:00;;;;;;;2.47;1.50;;;;;;;15.61;91.45;102139.13;5029604;28;20037;-62
2023/09/04 04:39:28;;;;;;;1.70;1.20;;;;;;;15.53;91.37;102137.38;5029578;28;20029;-62
2023/09/04 04:41:55;;;;;;;1.77;1.60;;;;;;;15.47;91.57;102127.13;5019231;28;20032;-62
2023/09/04 04:44:21;;;;;;;3.80;2.00;;;;;;;15.48;91.79;102129.50;5035769;28;20029;-63
2023/09/04 04:46:47;;;;;;;2.60;1.60;;;;;;;15.47;91.63;102144.22;5025414;28;20033;-62
2023/09/04 04:49:15;;;;;;;2.60;1.70;;;;;;;15.42;91.94;102139.06;5028846;28;20020;-60
2023/09/04 04:51:41;;;;;;;2.10;1.25;;;;;;;15.47;92.34;102144.22;5026572;28;20460;-60
2023/09/04 04:54:07;;;;;;;3.13;1.73;;;;;;;15.52;91.85;102141.25;5048847;28;20090;-60
2023/09/04 04:56:32;;;;;;;1.65;1.10;;;;;;;15.49;91.64;102141.16;5031891;28;20033;-59
2023/09/04 04:58:57;;;;;;;1.67;1.23;;;;;;;15.44;92.05;102146.84;5029433;28;20115;-60
2023/09/04 05:01:23;;;;;;;2.95;1.70;;;;;;;15.38;92.39;102151.72;5042179;28;20040;-60
2023/09/04 05:03:48;;;;;;;1.77;1.20;;;;;;;15.36;92.72;102137.72;5045994;28;20024;-61
2023/09/04 05:06:14;;;;;;;2.30;1.58;;;;;;;15.37;92.95;102145.50;5026037;28;20029;-60
2023/09/04 05:08:39;;;;;;;1.50;1.15;;;;;;;15.46;92.65;102148.09;5041710;28;20029;-61
2023/09/04 05:11:05;;;;;;;3.55;1.70;;;;;;;15.44;92.86;102150.38;5045936;28;20464;-60
2023/09/04 05:13:34;;;;;;;2.15;1.30;;;;;;;15.51;93.29;102152.44;5051338;28;20160;-60
2023/09/04 05:16:04;;;;;;;3.33;1.33;;;;;;;15.57;92.65;102151.84;5030998;28;20053;-61
2023/09/04 05:18:33;;;;;;;2.55;1.70;;;;;;;15.54;92.94;102149.84;5028119;28;20086;-60
2023/09/04 05:20:59;;;;;;;1.60;1.20;;;;;;;15.54;93.24;102151.75;5017618;28;20733;-61
2023/09/04 05:23:24;;;;;;;1.40;1.17;;;;;;;15.56;93.35;102152.19;5048788;28;20029;-60
2023/09/04 05:25:51;;;;;;;3.28;1.50;;;;;;;15.60;93.81;102148.41;5042006;28;20037;-60
2023/09/04 05:28:17;;;;;;;2.65;1.73;;;;;;;15.65;93.83;102152.78;5046261;28;20047;-61
2023/09/04 05:30:42;;;;;;;1.98;1.38;;;;;;;15.70;93.47;102156.03;5050055;28;20638;-61
2023/09/04 05:33:08;;;;;;;2.65;1.70;;;;;;;15.64;93.53;102154.72;5048189;28;20418;-61
2023/09/04 05:35:33;;;;;;;3.03;1.88;;;;;;;15.70;93.52;102155.25;5039740;28;20045;-59
2023/09/04 05:37:59;;;;;;;3.75;1.63;;;;;;;15.71;94.23;102156.81;5052296;28;20040;-60
2023/09/04 05:40:25;;;;;;;2.05;1.60;;;;;;;15.67;95.03;102162.19;5047602;28;20090;-60
2023/09/04 05:42:51;;;;;;;2.03;1.42;;;;;;;15.76;94.83;102157.34;5049987;28;20106;-60
2023/09/04 05:45:19;;;;;;;2.80;1.60;;;;;;;15.80;94.87;102165.56;5050931;28;20484;-60
2023/09/04 05:47:46;;;;;;;3.13;1.98;;;;;;;15.82;95.27;102168.72;5050010;28;20460;-60
2023/09/04 05:50:11;;;;;;;2.00;1.38;;;;;;;15.83;95.20;102176.50;5045829;28;20135;-60
2023/09/04 05:52:37;;;;;;;3.53;1.75;;;;;;;15.88;95.57;102170.84;5051485;28;20024;-60
2023/09/04 05:55:03;;;;;;;3.08;1.92;;;;;;;15.94;95.94;102185.72;5048115;28;20524;-60
2023/09/04 05:57:49;;;;;;;1.50;1.40;;;;;;;16.01;95.57;102187.81;5052146;28;20391;-60
2023/09/04 06:00:14;;;;;;;3.15;1.80;;;;;;;16.10;95.93;102185.69;4945271;29;20082;-60
2023/09/04 06:02:41;;;;;;;4.78;1.33;;;;;;;16.17;95.82;102183.13;4942443;29;20487;-60
2023/09/04 06:05:07;;;;;;;3.22;2.00;;;;;;;16.21;95.75;102184.78;4941446;29;20049;-60
2023/09/04 06:07:34;;;;;;;5.60;2.15;;;;;;;16.25;95.69;102190.31;4950463;28;20039;-60
2023/09/04 06:09:59;;;;;;;2.72;1.90;;;;;;;16.32;96.14;102195.88;4949479;29;20050;-60
2023/09/04 06:12:24;;;;;;;2.83;1.88;;;;;;;16.38;96.53;102199.13;4949482;29;20227;-60
2023/09/04 06:14:50;;;;;;;2.70;2.05;;;;;;;16.42;96.62;102194.53;4948896;28;20086;-60
2023/09/04 06:17:15;;;;;;;3.15;1.70;;;;;;;16.48;96.68;102193.13;4947842;29;20465;-60
2023/09/04 06:19:41;;;;;;;3.05;2.05;;;;;;;16.51;97.13;102192.44;4947415;29;20027;-60
2023/09/04 06:22:06;;;;;;;3.08;1.90;;;;;;;16.58;96.71;102195.31;4949902;29;20116;-60
2023/09/04 06:24:32;;;;;;;3.17;1.85;;;;;;;16.64;97.14;102186.53;4947593;29;20184;-61
2023/09/04 06:26:57;;;;;;;4.47;2.30;;;;;;;16.71;97.27;102197.53;4949670;29;20034;-61
2023/09/04 06:29:23;;;;;;;2.63;1.80;;;;;;;16.78;96.80;102194.19;4941306;28;20039;-61
2023/09/04 06:31:49;;;;;;;6.32;2.92;;;;;;;16.84;97.37;102192.75;4936973;29;20051;-61
2023/09/04 06:34:14;;;;;;;2.67;1.73;;;;;;;16.92;97.87;102186.28;4923130;29;20071;-61
2023/09/04 06:36:39;;;;;;;2.80;1.58;;;;;;;17.03;98.64;102195.44;4973518;28;20095;-61
2023/09/04 06:39:06;;;;;;;3.10;1.92;;;;;;;17.21;98.93;102193.06;5046145;28;20037;-60
2023/09/04 06:41:32;;;;;;;3.72;1.95;;;;;;;17.38;98.60;102193.34;5049071;28;20032;-60
2023/09/04 06:43:58;;;;;;;4.57;2.03;;;;;;;17.56;98.90;102197.19;5050688;28;20039;-60
2023/09/04 06:46:23;;;;;;;2.25;1.80;;;;;;;17.80;98.74;102196.84;5047356;28;20041;-60
2023/09/04 06:48:49;;;;;;;6.15;2.30;;;;;;;18.04;98.37;102203.78;5049675;28;20104;-60
2023/09/04 06:51:16;;;;;;;3.20;1.75;;;;;;;18.30;98.04;102205.72;5049168;28;20029;-60
2023/09/04 06:53:41;;;;;;;4.25;2.20;;;;;;;18.41;98.12;102201.19;5019572;28;20028;-61
2023/09/04 06:56:07;;;;;;;4.47;1.73;;;;;;;18.61;98.18;102200.75;5047489;28;20027;-60
2023/09/04 06:58:32;;;;;;;3.80;2.10;;;;;;;18.61;98.12;102202.69;5050782;28;20044;-61
2023/09/04 07:01:02;;;;;;;2.83;1.83;;;;;;;18.55;96.35;102202.22;5050615;28;20045;-60
2023/09/04 07:03:27;;;;;;;3.25;1.88;;;;;;;18.64;96.40;102208.19;5046355;28;20033;-61
2023/09/04 07:05:53;;;;;;;4.50;1.67;;;;;;;18.85;95.17;102205.69;5033056;28;20033;-60
2023/09/04 07:08:18;;;;;;;3.53;1.60;;;;;;;18.98;94.81;102208.19;5038143;28;20602;-61
2023/09/04 07:10:44;;;;;;;2.33;1.77;;;;;;;19.23;95.40;102210.03;5047708;28;20082;-60
2023/09/04 07:13:09;;;;;;;5.00;1.50;;;;;;;19.51;94.30;102204.09;5044922;28;20036;-61
2023/09/04 07:15:35;;;;;;;2.08;1.60;;;;;;;19.73;93.61;102212.06;5048536;28;20044;-60
2023/09/04 07:18:00;;;;;;;2.20;1.20;;;;;;;19.98;92.89;102209.50;5050167;28;20036;-61
2023/09/04 07:20:27;;;;;;;2.60;1.67;;;;;;;20.28;92.23;102218.38;5044194;28;20042;-61
2023/09/04 07:22:52;;;;;;;3.55;1.58;;;;;;;20.47;91.12;102215.34;5040867;28;20036;-61
2023/09/04 07:25:18;;;;;;;3.30;1.70;;;;;;;20.67;90.04;102215.81;5050013;28;20029;-61
2023/09/04 07:27:44;;;;;;;2.33;1.58;;;;;;;20.90;89.38;102213.56;5048175;28;20047;-61
2023/09/04 07:30:10;;;;;;;3.35;1.70;;;;;;;21.11;88.79;102210.09;5046344;28;20035;-60
2023/09/04 07:32:36;;;;;;;2.17;1.48;;;;;;;21.28;87.04;102218.38;5048325;28;20091;-59
2023/09/04 07:35:03;;;;;;;1.95;1.27;;;;;;;21.42;86.17;102221.13;5043938;28;20018;-60
2023/09/04 07:37:29;;;;;;;2.83;1.55;;;;;;;21.61;83.51;102219.19;5039841;28;20116;-60
2023/09/04 07:39:54;;;;;;;1.58;1.30;;;;;;;21.73;83.69;102227.03;5046572;28;20195;-60
2023/09/04 07:42:21;;;;;;;2.03;1.20;;;;;;;21.84;82.65;102227.81;5048832;28;20035;-61
2023/09/04 07:44:47;;;;;;;1.50;1.00;;;;;;;22.09;81.82;102223.09;5026594;28;20487;-61
2023/09/04 07:47:12;;;;;;;1.55;1.00;;;;;;;22.29;79.68;102221.50;5048456;28;20079;-61
2023/09/04 07:49:38;;;;;;;2.70;1.20;;;;;;;22.43;79.23;102227.72;5047777;28;20036;-60
2023/09/04 07:52:03;;;;;;;1.55;1.10;;;;;;;22.56;78.47;102225.34;5049528;28;20056;-60
2023/09/04 07:54:29;;;;;;;1.30;1.00;;;;;;;22.64;77.31;102235.16;5047069;28;20104;-60
2023/09/04 07:56:54;;;;;;;1.80;1.20;;;;;;;22.86;76.94;102228.38;5031443;28;20045;-61
2023/09/04 07:59:20;;;;;;;3.15;0.93;;;;;;;23.03;75.37;102233.00;5047895;28;20033;-61
2023/09/04 08:01:45;;;;;;;1.70;1.10;;;;;;;23.08;74.61;102235.34;5046346;28;20036;-61
2023/09/04 08:04:14;;;;;;;1.35;0.88;;;;;;;23.24;74.69;102240.34;5048924;28;20021;-61
2023/09/04 08:06:39;;;;;;;1.15;0.80;;;;;;;23.40;74.08;102231.63;5050308;28;20037;-61
2023/09/04 08:09:05;;;;;;;0.82;0.70;;;;;;;23.53;73.74;102238.22;5043810;28;20036;-61
2023/09/04 08:11:30;;;;;;;1.65;0.80;;;;;;;23.77;73.00;102240.00;5040672;28;20045;-60
2023/09/04 08:13:56;;;;;;;1.00;0.77;;;;;;;24.12;71.35;102232.22;5049008;28;20029;-61
2023/09/04 08:16:21;;;;;;;1.10;0.77;;;;;;;24.23;70.81;102243.13;5049848;28;20064;-61
2023/09/04 08:18:47;;;;;;;1.00;0.75;;;;;;;24.21;68.06;102240.00;5024347;28;20033;-61
2023/09/04 08:21:12;;;;;;;1.00;0.80;;;;;;;24.19;69.68;102234.13;5049329;28;20040;-60
2023/09/04 08:23:38;;;;;;;1.27;0.80;;;;;;;24.41;68.72;102234.69;5049010;28;20131;-61
2023/09/04 08:26:04;;;;;;;0.90;0.70;;;;;;;24.53;67.92;102234.13;5048056;28;20049;-61
2023/09/04 08:28:29;;;;;;;1.23;0.85;;;;;;;24.73;68.14;102233.13;5045159;28;20154;-61
2023/09/04 08:31:15;;;;;;;3.92;0.77;;;;;;;24.76;66.16;102232.31;5042827;28;20452;-61
2023/09/04 08:33:41;;;;;;;1.15;0.77;;;;;;;24.84;65.29;102235.75;4945646;29;20055;-61
2023/09/04 08:36:06;;;;;;;1.10;0.63;;;;;;;24.78;64.18;102229.91;4949282;29;20058;-61
2023/09/04 08:38:32;;;;;;;0.73;0.35;;;;;;;25.05;63.94;102225.22;4954418;28;20053;-61
2023/09/04 08:41:04;;;;;;;3.72;0.70;;;;;;;25.15;62.14;102223.50;4950298;28;20038;-61
2023/09/04 08:43:31;;;;;;;1.38;0.55;;;;;;;25.26;57.03;102226.88;4948528;29;20039;-61
2023/09/04 08:46:00;;;;;;;0.40;0.40;;;;;;;25.26;58.99;102232.38;4949195;29;20486;-60
2023/09/04 08:48:49;;;;;;;0.50;0.35;;;;;;;25.54;59.07;102225.69;4948503;28;20097;-61
2023/09/04 08:51:15;;;;;;;0.90;0.45;;;;;;;25.71;57.47;102224.59;4870194;29;20044;-61
2023/09/04 08:53:41;;;;;;;0.50;0.38;;;;;;;25.88;57.86;102226.28;4907123;29;20399;-59
2023/09/04 08:56:07;;;;;;;0.93;0.52;;;;;;;26.09;56.76;102228.72;4891215;29;20041;-61
2023/09/04 08:58:32;;;;;;;1.10;0.40;;;;;;;26.10;57.00;102219.22;4893293;29;20059;-61
2023/09/04 09:00:58;;;;;;;3.28;0.50;;;;;;;25.82;55.98;102225.22;4894920;29;20028;-61
2023/09/04 09:03:24;;;;;;;0.30;0.30;;;;;;;25.93;56.75;102220.28;4884959;29;20732;-62
2023/09/04 09:05:55;;;;;;;0.75;0.40;;;;;;;25.83;55.21;102216.53;4890160;29;20040;-62
2023/09/04 09:08:21;;;;;;;;;;;;;;;26.26;55.25;102221.28;4892204;29;20052;-61
2023/09/04 09:10:46;;;;;;;1.13;0.60;;;;;;;26.70;54.15;102229.91;4916907;28;20321;-61
2023/09/04 09:13:15;;;;;;;0.77;0.40;;;;;;;26.88;52.92;102225.97;4953763;28;20498;-61
2023/09/04 09:15:43;;;;;;;0.52;0.52;;;;;;;26.93;53.27;102220.69;4950023;28;20043;-62
2023/09/04 09:18:08;;;;;;;0.70;0.50;;;;;;;27.07;53.97;102219.59;4948916;29;20033;-62
2023/09/04 09:20:36;;;;;;;0.50;0.50;;;;;;;27.15;54.22;102232.06;4947815;28;20043;-61
2023/09/04 09:23:05;;;;;;;1.08;0.40;;;;;;;27.15;52.73;102227.34;4947645;28;20087;-61
2023/09/04 09:25:31;;;;;;;1.60;0.57;;;;;;;27.11;52.60;102223.06;4947842;29;20133;-61
2023/09/04 09:28:02;;;;;;;0.70;0.38;;;;;;;27.31;51.95;102223.81;4984102;28;20051;-61
2023/09/04 09:30:36;;;;;;;0.50;0.40;;;;;;;27.48;50.85;102225.41;5035772;28;20485;-60
2023/09/04 09:33:08;;;;;;;0.20;0.20;;;;;;;27.70;50.81;102223.63;5041484;28;20048;-61
2023/09/04 09:35:33;;;;;;;0.60;0.40;;;;;;;27.45;49.35;102223.47;5049243;28;20549;-61
2023/09/04 09:38:01;;;;;;;0.32;0.30;;;;;;;27.46;50.69;102217.53;5043638;28;20021;-62
2023/09/04 09:40:27;;;;;;;0.47;0.40;;;;;;;27.74;49.95;102220.81;5046080;28;20545;-60
2023/09/04 09:42:52;;;;;;;0.45;0.45;;;;;;;27.37;50.25;102214.56;5049421;28;20037;-61
2023/09/04 09:45:18;;;;;;;0.30;0.25;;;;;;;27.51;50.07;102214.22;5050196;28;20112;-61
2023/09/04 09:47:44;;;;;;;1.45;0.40;;;;;;;27.71;48.73;102205.81;5047145;28;20108;-61
2023/09/04 09:50:10;;;;;;;0.75;0.45;;;;;;;27.38;48.33;102205.06;5050489;28;20064;-61
2023/09/04 09:52:35;;;;;;;0.45;0.38;;;;;;;27.65;49.62;102210.31;5050858;28;20037;-62
2023/09/04 09:55:01;;;;;;;0.52;0.22;;;;;;;28.00;50.01;102203.91;5047369;28;20037;-63
2023/09/04 09:57:47;;;;;;;1.30;0.30;;;;;;;28.17;49.16;102202.63;5048213;28;20040;-63
2023/09/04 10:00:13;;;;;;;1.65;0.28;;;;;;;28.48;46.93;102209.25;4956446;28;20074;-63
2023/09/04 10:02:38;;;;;;;0.93;0.52;;;;;;;28.39;47.55;102203.59;4938698;28;20487;-63
2023/09/04 10:05:08;;;;;;;1.08;0.40;;;;;;;28.60;47.23;102201.44;4950249;28;20054;-63
2023/09/04 10:07:36;;;;;;;2.47;0.47;;;;;;;28.52;45.80;102195.28;4963493;28;20039;-63
2023/09/04 10:10:05;;;;;;;0.50;0.47;;;;;;;28.54;46.61;102198.44;4963636;28;20075;-63
2023/09/04 10:12:49;;;;;;;0.40;0.30;;;;;;;28.21;46.77;102186.69;4965240;28;20039;-63
2023/09/04 10:15:25;;;;;;;0.77;0.40;;;;;;;28.09;45.65;102190.19;4952379;28;20047;-64
2023/09/04 10:18:11;;;;;;;1.58;0.47;;;;;;;28.01;46.53;102186.03;4968414;28;20759;-63
2023/09/04 10:20:40;;;;;;;0.20;0.20;;;;;;;28.31;45.89;102190.38;4962762;28;20043;-64
2023/09/04 10:23:10;;;;;;;0.38;0.28;;;;;;;28.46;47.40;102181.19;4955596;28;20031;-64
2023/09/04 10:25:58;;;;;;;0.30;0.20;;;;;;;28.81;46.30;102187.72;4971139;28;20053;-61
2023/09/04 10:29:03;;;;;;;0.30;0.20;;;;;;;29.15;45.68;102187.09;4970751;28;20426;-63
2023/09/04 10:31:31;;;;;;;0.85;0.50;;;;;;;29.40;44.76;102184.28;4957333;28;20571;-63
2023/09/04 10:33:58;;;;;;;1.55;0.40;;;;;;;29.56;44.72;102186.13;4953395;28;20035;-62
2023/09/04 10:36:25;;;;;;;1.27;0.25;;;;;;;29.42;45.60;102183.81;4964339;28;20691;-63
2023/09/04 10:38:50;;;;;;;0.55;0.32;;;;;;;29.54;45.27;102181.00;5035714;28;20047;-63
2023/09/04 10:41:16;;;;;;;0.30;0.30;;;;;;;29.56;45.21;102177.78;5036672;28;20395;-63
2023/09/04 10:43:43;;;;;;;0.50;0.30;;;;;;;29.53;43.46;102179.47;5046475;28;20032;-63
2023/09/04 10:46:11;;;;;;;0.38;0.20;;;;;;;28.20;44.99;102168.47;5048853;28;20399;-63
2023/09/04 10:48:45;;;;;;;0.20;0.20;;;;;;;28.62;45.59;102168.50;5066050;22;20094;-60
2023/09/04 10:51:34;;;;;;;0.57;0.22;;;;;;;29.08;44.03;102163.06;4999628;28;20042;-62
2023/09/04 10:54:24;;;;;;;0.30;0.10;;;;;;;29.21;44.58;102166.63;4999307;28;20033;-62
2023/09/04 10:56:59;;;;;;;0.85;0.45;;;;;;;29.56;44.18;102161.88;4994783;28;20048;-56
2023/09/04 10:59:26;;;;;;;0.88;0.20;;;;;;;29.65;44.51;102164.75;5005737;28;20033;-59
2023/09/04 11:01:52;;;;;;;0.98;0.30;;;;;;;29.06;45.01;102153.63;5001163;28;20030;-59
2023/09/04 11:04:36;;;;;;;0.28;0.25;;;;;;;28.82;44.86;102152.41;5006992;28;20057;-58
2023/09/04 11:07:20;;;;;;;0.47;0.22;;;;;;;29.34;43.71;102161.06;4998665;28;20029;-57
2023/09/04 11:10:06;;;;;;;0.35;0.30;;;;;;;28.93;44.11;102163.97;5003809;28;20033;-56
2023/09/04 11:12:35;;;;;;;0.20;0.20;;;;;;;28.77;44.92;102158.50;4948826;29;20059;-58
2023/09/04 11:15:00;;;;;;;0.75;0.40;;;;;;;29.05;43.93;102157.63;4948288;29;20057;-58
2023/09/04 11:17:52;;;;;;;0.52;0.30;;;;;;;29.06;44.28;102145.28;4945514;29;20043;-59
2023/09/04 11:20:24;;;;;;;0.35;0.30;;;;;;;29.41;44.85;102155.25;4843603;29;20046;-60
2023/09/04 11:22:49;;;;;;;1.95;0.20;;;;;;;29.81;43.90;102145.16;4834935;29;20103;-56
2023/09/04 11:25:16;;;;;;;0.70;0.30;;;;;;;29.86;42.87;102147.38;4812385;29;20564;-63
2023/09/04 11:27:46;;;;;;;0.30;0.17;;;;;;;29.81;41.72;102153.50;4830138;29;20045;-60